Pagrindinis puslapis
METAR-TAF:

METAR-TAF

Oro uostai :

Vladivostokas, Rusija

platuma: 43-07N, ilguma: 131-56E, Aukštis: 184 m

Dabartinis oras

Ataskaita buvo paskelbta 23 minutes, ne 01:00 UTC
Vėjas 6 kt iš Šiaurės/Šiaurės Vakarų
Temperatūra -7°C
Drėgmė 48%
Slėgis 1029 hPa
Matomumas 10 km arba daugiau

METAR: UHWW 200100Z 34003MPS 9999 NSC M07/M16 Q1029 R25L/820255 NOSIG RMK QFE770

Laikas: 11:23 (01:23 UTC)

Prognozė

Ataskaita buvo paskelbta 2 valandos ir 23 minutes, ne 23:00 UTC
Prognozė galioja nuo 20 metu 00 UTC su 20 metu 24 UTC
Vėjas 6 kt iš Šiaurės/Šiaurės Vakarų
Matomumas 10 km arba daugiau
Išsisklaidę debesys ne aukštis 3000 ft, Liūtiniai kamuoliniai debesys.
Laikinai
nuo 20 metu 00 UTC su 20 metu 14 UTC
Vėjas 16 kt iš Šiaurės Vakarų
Matomumas: 5000 m
Su prošvaistėmis ne aukštis 2000 ft, Liūtiniai kamuoliniai debesys.
sniegas
Tapsmas
nuo 20 metu 16 UTC su 20 metu 18 UTC
Vėjas 6 kt iš Šiaurės/Šiaurės Rytų

TAF: UHWW 192300Z 2000/2024 33003MPS 9999 SCT030CB TEMPO 2000/2014 32008MPS 5000 -SHSN BKN020CB BECMG 2016/2018 02003MPS NSC

Orai ataskaitas ir orų prognozės (METAR, TAF).

turimą stotys yra geltonos ir raudonos taškus žemėlapyje.

Perkelti pele per norėdami pamatyti stoties vardą.

Tada spustelėkite, norėdami matyti oro stebėjimo ir prognozės.

Norėdami pakeisti žemėlapį: spustelėkite ant žalios mygtukų su juodo kryžiaus žemyn,; žalią mygtuką su brūkšneliu, jei norite nutolinti; arba žalių rodyklių gretimoms žemėlapius.


METAR-TAF: